Date,TemperatureHighF,TemperatureAvgF,TemperatureLowF,DewpointHighF,DewpointAvgF,DewpointLowF,HumidityHigh,HumidityAvg,HumidityLow,PressureMaxIn,PressureMinIn,WindSpeedMaxMPH,WindSpeedAvgMPH,GustSpeedMaxMPH,PrecipitationSumIn
2013-1-1,56.7,40.5,30.2,43.7,34.2,28.4,100,82,37,30.28,30.18,13,1,15,0.00
2013-1-2,54.2,37.7,27.5,40.1,32.4,26.3,96,83,56,30.24,30.12,8,1,0,0.01
2013-1-3,55.4,37.7,26.9,41.2,33.6,25.8,98,87,55,30.27,30.16,5,1,0,0.01
2013-1-4,56.1,39.7,29.8,43.9,35.5,28.8,98,86,59,30.28,30.17,5,0,0,0.00
2013-1-5,49.1,41.1,30.6,45.4,39.5,29.6,98,94,82,30.25,30.05,8,1,0,0.24
2013-1-6,55.0,45.0,34.5,46.0,42.1,33.7,98,90,66,30.18,30.04,7,1,0,0.02
2013-1-7,59.9,44.1,32.9,51.9,41.2,32.1,99,91,66,30.26,30.14,5,0,0,0.00
2013-1-8,60.9,44.2,34.9,50.9,41.7,34.4,99,91,69,30.24,30.12,5,0,0,0.01
2013-1-9,51.5,41.7,32.8,50.2,40.0,31.0,99,94,79,30.16,29.97,9,1,12,0.02
2013-1-10,50.8,39.1,30.3,38.9,32.6,29.2,97,79,51,30.19,30.06,14,2,16,0.01
2013-1-11,51.6,39.0,30.2,42.9,34.4,27.6,96,84,63,30.25,30.11,6,1,12,0.00
2013-1-12,52.0,37.6,26.3,36.1,31.3,25.1,97,80,43,30.24,30.12,4,0,0,0.00
2013-1-13,51.0,35.9,24.2,37.7,29.6,16.5,99,80,32,30.26,30.17,10,1,15,0.01
2013-1-14,56.0,41.0,26.2,34.0,26.3,15.3,94,60,26,30.39,30.21,12,1,15,0.00
2013-1-15,52.4,36.2,26.1,36.8,30.7,24.9,97,82,51,30.48,30.39,4,0,0,0.00
2013-1-16,58.4,38.0,26.3,41.4,32.7,25.1,98,83,48,30.44,30.26,5,0,0,0.01
2013-1-17,60.1,38.7,25.9,44.2,33.8,24.9,98,85,51,30.27,30.15,5,1,0,0.01
2013-1-18,59.8,40.5,27.4,46.3,35.9,26.9,100,86,54,30.23,30.12,9,1,0,0.00
2013-1-19,61.4,40.3,26.5,43.2,34.9,25.5,98,83,49,30.25,30.15,7,1,0,0.01
2013-1-20,61.6,40.7,27.4,42.2,34.1,26.4,98,81,43,30.23,30.11,8,1,0,0.01
2013-1-21,62.2,41.5,25.4,44.9,35.4,24.2,97,81,50,30.18,30.07,7,1,0,0.01
2013-1-22,60.8,44.2,30.0,44.3,37.9,29.0,98,81,52,30.11,29.97,9,1,0,0.01
2013-1-23,51.0,47.9,44.0,47.8,45.0,41.5,98,90,78,30.08,29.94,7,1,0,0.39
2013-1-24,59.4,50.9,46.9,54.4,49.3,46.3,99,94,81,30.18,30.06,6,1,0,0.00
2013-1-25,62.9,52.3,44.5,56.7,50.4,43.7,99,93,78,30.18,30.02,5,0,0,0.00
2013-1-26,57.2,47.8,36.4,49.5,43.7,34.0,100,87,59,30.07,29.95,10,1,15,0.01
2013-1-27,56.2,41.7,29.6,40.6,35.0,28.4,98,79,44,30.18,30.05,8,2,0,0.00
2013-1-28,57.5,44.3,32.5,42.5,37.7,30.8,96,79,54,30.28,30.16,12,3,16,0.01
2013-1-29,61.4,46.1,33.3,48.7,40.3,31.8,96,81,52,30.35,30.25,8,1,0,0.00
2013-1-30,66.7,48.5,35.3,53.5,43.0,34.5,99,83,55,30.33,30.24,7,0,0,0.00
2013-1-31,63.3,45.6,33.7,51.2,41.7,33.2,100,88,60,30.29,30.17,6,1,0,0.01